Time;durP1;ratioP1;P1;durP2;ratioP2;P2;SDS_P1;SDS_P2;PMS_P1;PMS_P2;Temp;Humidity;BMP_temperature;BMP_pressure;BME280_temperature;BME280_humidity;BME280_pressure;Samples;Min_cycle;Max_cycle;Signal;HPM_P1;HPM_P2
2022/09/03 00:02:44;;;;;;;2.47;2.13;;;;;;;16.46;49.34;100994.41;5074616;28;20047;-84
2022/09/03 00:05:36;;;;;;;3.78;2.45;;;;;;;16.39;49.22;100996.41;5067814;28;20549;-84
2022/09/03 00:08:07;;;;;;;2.88;2.30;;;;;;;16.36;49.26;100992.13;5053393;28;20473;-85
2022/09/03 00:10:45;;;;;;;3.92;2.80;;;;;;;16.32;49.90;100997.56;5054523;28;20040;-85
2022/09/03 00:13:16;;;;;;;3.45;2.55;;;;;;;16.30;49.51;100997.59;5054275;28;20098;-85
2022/09/03 00:15:41;;;;;;;2.53;2.33;;;;;;;16.27;49.49;100994.22;5054251;28;20079;-85
2022/09/03 00:18:17;;;;;;;2.40;2.17;;;;;;;16.25;49.03;100994.31;5054561;28;20025;-85
2022/09/03 00:20:49;;;;;;;2.22;2.00;;;;;;;16.22;49.84;100994.41;5056075;28;20086;-85
2022/09/03 00:23:20;;;;;;;1.85;1.70;;;;;;;16.19;49.58;100994.50;5073783;28;20388;-85
2022/09/03 00:26:02;;;;;;;2.00;1.90;;;;;;;16.15;50.48;100996.38;5074415;28;20031;-85
2022/09/03 00:28:37;;;;;;;3.53;2.53;;;;;;;16.06;52.08;100994.94;5073775;28;20444;-84
2022/09/03 00:31:35;;;;;;;2.90;2.50;;;;;;;16.05;50.02;100995.00;5074250;28;20040;-85
2022/09/03 00:34:10;;;;;;;2.58;2.30;;;;;;;16.04;50.08;100985.44;5061044;28;20025;-84
2022/09/03 00:36:43;;;;;;;3.10;2.42;;;;;;;16.02;50.53;100993.38;5053825;28;20029;-85
2022/09/03 00:39:18;;;;;;;2.30;2.05;;;;;;;16.01;50.27;100996.03;5053854;28;20025;-85
2022/09/03 00:42:09;;;;;;;2.00;1.75;;;;;;;15.99;50.25;100995.22;5054221;28;20055;-85
2022/09/03 00:44:37;;;;;;;2.00;1.90;;;;;;;15.98;50.12;100996.16;5054036;28;20032;-85
2022/09/03 00:47:17;;;;;;;2.47;1.90;;;;;;;15.95;50.59;100996.25;5054045;28;20029;-85
2022/09/03 00:50:06;;;;;;;2.58;1.77;;;;;;;15.93;49.83;100995.44;5053325;28;20028;-85
2022/09/03 00:52:46;;;;;;;1.90;1.80;;;;;;;15.93;50.09;100998.06;5043600;28;20091;-85
2022/09/03 00:55:19;;;;;;;1.77;1.67;;;;;;;15.88;50.34;100993.84;5053338;28;20045;-85
2022/09/03 00:58:02;;;;;;;1.70;1.60;;;;;;;15.83;50.60;100993.13;5053004;28;20078;-85
2022/09/03 01:00:28;;;;;;;1.65;1.55;;;;;;;15.79;51.21;100995.91;5053799;28;20503;-84
2022/09/03 01:03:06;;;;;;;1.47;1.37;;;;;;;15.76;51.13;100994.25;5072966;28;20020;-85
2022/09/03 01:06:02;;;;;;;1.35;1.25;;;;;;;15.70;50.77;100992.72;5073346;28;20483;-86
2022/09/03 01:08:45;;;;;;;1.60;1.50;;;;;;;15.67;52.23;100991.94;5059995;28;20036;-84
2022/09/03 01:11:19;;;;;;;1.70;1.60;;;;;;;15.64;51.02;100995.53;5072909;28;20500;-85
2022/09/03 01:14:12;;;;;;;1.50;1.40;;;;;;;15.63;50.81;100985.13;5073524;28;20034;-84
2022/09/03 01:16:54;;;;;;;2.33;1.80;;;;;;;15.61;50.37;100987.75;5073417;28;20025;-85
2022/09/03 01:20:00;;;;;;;1.50;1.40;;;;;;;15.55;50.87;100985.38;5072675;28;20040;-85
2022/09/03 01:23:02;;;;;;;1.60;1.50;;;;;;;15.51;50.53;100984.63;5073649;28;20024;-85
2022/09/03 01:25:56;;;;;;;1.70;1.60;;;;;;;15.48;51.36;100984.72;5072239;28;20039;-84
2022/09/03 01:28:50;;;;;;;1.50;1.40;;;;;;;15.48;50.98;100986.50;5073043;28;20558;-85
2022/09/03 01:31:37;;;;;;;1.50;1.40;;;;;;;15.44;51.45;100990.94;5066458;28;20104;-85
2022/09/03 01:34:14;;;;;;;2.00;1.90;;;;;;;15.41;51.69;100986.69;5052837;28;20033;-84
2022/09/03 01:36:52;;;;;;;1.80;1.70;;;;;;;15.40;51.66;100995.44;5053123;28;20051;-84
2022/09/03 01:39:31;;;;;;;1.80;1.70;;;;;;;15.36;51.80;100990.34;5052568;28;20071;-84
2022/09/03 01:42:20;;;;;;;2.20;2.00;;;;;;;15.32;51.98;100991.34;5052768;28;20029;-84
2022/09/03 01:45:27;;;;;;;2.20;2.00;;;;;;;15.31;53.01;100992.28;5053120;28;20021;-84
2022/09/03 01:47:56;;;;;;;2.20;2.00;;;;;;;15.28;52.76;100985.38;5052883;28;20026;-85
2022/09/03 01:50:32;;;;;;;4.13;2.50;;;;;;;15.24;52.87;100992.47;5052683;28;20459;-85
2022/09/03 01:53:31;;;;;;;2.95;2.40;;;;;;;15.21;53.12;100986.50;5051831;28;20047;-85
2022/09/03 01:56:07;;;;;;;2.15;1.90;;;;;;;15.18;52.84;100984.84;5052568;28;20461;-85
2022/09/03 01:58:45;;;;;;;2.38;2.17;;;;;;;15.15;52.82;100995.38;5061156;28;20255;-85
2022/09/03 02:01:19;;;;;;;2.67;1.92;;;;;;;15.14;53.98;100991.91;5071544;28;20032;-85
2022/09/03 02:03:47;;;;;;;2.60;2.20;;;;;;;15.13;52.93;100994.56;5072757;28;20039;-85
2022/09/03 02:06:12;;;;;;;3.53;2.63;;;;;;;15.07;52.94;100982.56;5072387;28;20380;-85
2022/09/03 02:08:38;;;;;;;2.80;2.30;;;;;;;15.09;53.08;100985.09;5071740;28;20024;-85
2022/09/03 02:11:07;;;;;;;2.50;2.30;;;;;;;15.10;53.01;100978.97;5072627;28;20484;-85
2022/09/03 02:13:43;;;;;;;2.10;2.00;;;;;;;15.10;52.86;100986.81;5071680;28;20302;-85
2022/09/03 02:16:23;;;;;;;2.17;1.92;;;;;;;15.10;53.66;100986.81;5072404;28;20060;-85
2022/09/03 02:18:58;;;;;;;2.78;2.10;;;;;;;15.09;52.54;100985.97;5072558;28;20534;-85
2022/09/03 02:21:26;;;;;;;2.47;1.80;;;;;;;15.07;52.53;100990.41;5072060;28;20035;-85
2022/09/03 02:23:51;;;;;;;1.77;1.60;;;;;;;15.05;54.42;100986.97;5072434;28;20481;-85
2022/09/03 02:26:22;;;;;;;1.93;1.83;;;;;;;15.00;53.21;100975.81;5065198;28;20039;-85
2022/09/03 02:28:49;;;;;;;1.90;1.80;;;;;;;14.97;52.59;100981.97;5051824;28;20025;-86
2022/09/03 02:31:15;;;;;;;1.63;1.52;;;;;;;14.95;53.01;100975.97;5052388;28;20049;-85
2022/09/03 02:33:45;;;;;;;1.80;1.70;;;;;;;14.90;53.59;100984.84;5056328;28;20420;-85
2022/09/03 02:36:14;;;;;;;1.92;1.70;;;;;;;14.87;52.94;100977.09;5055195;28;20455;-85
2022/09/03 02:38:43;;;;;;;2.00;1.80;;;;;;;14.86;53.32;100981.47;5056342;28;20071;-85
2022/09/03 02:41:12;;;;;;;1.80;1.55;;;;;;;14.87;52.42;100980.56;5056293;28;20091;-85
2022/09/03 02:43:53;;;;;;;1.60;1.50;;;;;;;14.85;52.86;100982.38;5055708;28;20430;-85
2022/09/03 02:46:28;;;;;;;1.60;1.50;;;;;;;14.83;52.89;100979.81;5056578;28;20029;-85
2022/09/03 02:48:54;;;;;;;1.60;1.50;;;;;;;14.83;53.40;100978.97;5055101;28;20404;-85
2022/09/03 02:51:19;;;;;;;1.30;1.20;;;;;;;14.80;53.08;100989.50;5056108;28;20025;-85
2022/09/03 02:53:45;;;;;;;1.60;1.37;;;;;;;14.76;52.73;100980.91;5057397;28;20061;-85
2022/09/03 02:56:11;;;;;;;1.43;1.33;;;;;;;14.74;53.61;100984.47;5068833;28;20025;-85
2022/09/03 02:58:36;;;;;;;1.20;1.20;;;;;;;14.71;53.17;100981.94;5073670;28;20025;-85
2022/09/03 03:01:02;;;;;;;1.83;1.17;;;;;;;14.71;53.06;100979.34;5076050;28;20070;-85
2022/09/03 03:03:27;;;;;;;1.80;1.70;;;;;;;14.67;54.64;100978.56;5075334;28;20032;-85
2022/09/03 03:05:56;;;;;;;1.90;1.80;;;;;;;14.66;53.19;100980.28;5075709;28;20031;-85
2022/09/03 03:08:24;;;;;;;1.55;1.45;;;;;;;14.67;52.98;100984.66;5075953;28;20487;-85
2022/09/03 03:10:59;;;;;;;1.90;1.40;;;;;;;14.66;53.12;100982.91;5075065;28;20036;-85
2022/09/03 03:13:26;;;;;;;1.10;1.10;;;;;;;14.67;53.01;100989.03;5075969;28;20034;-86
2022/09/03 03:15:55;;;;;;;1.85;1.75;;;;;;;14.68;53.44;100982.91;5075396;28;20473;-85
2022/09/03 03:18:20;;;;;;;2.10;1.60;;;;;;;14.63;53.77;100987.38;5074990;28;20021;-85
2022/09/03 03:20:47;;;;;;;1.63;1.53;;;;;;;14.60;53.67;100969.16;5072776;28;20074;-85
2022/09/03 03:23:12;;;;;;;1.38;1.27;;;;;;;14.59;53.76;100970.94;5055542;28;20110;-86
2022/09/03 03:25:39;;;;;;;1.60;1.50;;;;;;;14.58;53.46;100979.66;5054991;28;20066;-86
2022/09/03 03:28:04;;;;;;;;;;;;;;;14.56;53.79;100984.06;5055817;28;20040;-85
2022/09/03 03:30:31;;;;;;;1.50;1.40;;;;;;;14.54;53.85;100988.47;5055736;28;19995;-86
2022/09/03 03:32:56;;;;;;;1.40;1.30;;;;;;;14.53;54.28;100981.56;5054633;28;20120;-85
2022/09/03 03:35:22;;;;;;;1.47;1.37;;;;;;;14.51;53.42;100983.38;5055403;28;20108;-85
2022/09/03 03:37:47;;;;;;;1.50;1.40;;;;;;;14.52;54.44;100991.16;5055725;28;20029;-86
2022/09/03 03:40:14;;;;;;;1.03;1.03;;;;;;;14.47;54.15;100982.59;5055004;28;20032;-86
2022/09/03 03:42:39;;;;;;;1.15;1.10;;;;;;;14.47;53.37;100985.19;5055433;28;20029;-86
2022/09/03 03:45:05;;;;;;;1.00;1.00;;;;;;;14.46;53.63;100982.63;5054196;28;20025;-85
2022/09/03 03:47:31;;;;;;;1.40;1.30;;;;;;;14.42;54.04;100981.00;5055191;28;20021;-86
2022/09/03 03:49:57;;;;;;;1.60;1.50;;;;;;;14.38;54.23;100984.63;5066720;28;20437;-85
2022/09/03 03:52:23;;;;;;;1.42;1.33;;;;;;;14.34;54.08;100986.47;5074214;28;20071;-85
2022/09/03 03:54:49;;;;;;;1.42;1.33;;;;;;;14.32;54.91;100976.06;5074586;28;20040;-86
2022/09/03 03:57:15;;;;;;;1.13;1.00;;;;;;;14.32;54.45;100978.66;5075065;28;20031;-85
2022/09/03 03:59:40;;;;;;;1.37;1.27;;;;;;;14.33;54.21;100983.00;5074367;28;20272;-85
2022/09/03 04:02:06;;;;;;;1.30;1.20;;;;;;;14.34;54.47;100983.88;5074799;28;20115;-85
2022/09/03 04:04:31;;;;;;;1.43;1.33;;;;;;;14.32;55.66;100980.44;5074883;28;20029;-85
2022/09/03 04:06:56;;;;;;;1.57;1.33;;;;;;;14.34;54.45;100976.03;5073964;28;20385;-85
2022/09/03 04:09:21;;;;;;;1.87;1.13;;;;;;;14.36;54.56;100974.22;5075030;28;20021;-85
2022/09/03 04:11:47;;;;;;;1.20;1.20;;;;;;;14.39;54.68;100981.97;5074791;28;20028;-85
2022/09/03 04:14:12;;;;;;;1.13;1.07;;;;;;;14.41;55.19;100988.00;5073564;28;20059;-85
2022/09/03 04:16:37;;;;;;;1.40;1.30;;;;;;;14.42;54.89;100984.50;5073061;28;20473;-86
2022/09/03 04:19:03;;;;;;;2.07;1.30;;;;;;;14.44;54.16;100981.81;5074367;28;20032;-85
2022/09/03 04:21:30;;;;;;;1.17;1.07;;;;;;;14.43;53.87;100961.84;5074061;28;20029;-86
2022/09/03 04:23:56;;;;;;;0.93;0.93;;;;;;;14.41;55.05;100969.72;5074450;28;20274;-86
2022/09/03 04:26:31;;;;;;;;;;;;;;;14.42;54.54;100976.66;5075121;28;20025;-86
2022/09/03 04:28:58;;;;;;;1.65;1.55;;;;;;;14.41;54.49;100971.50;5073409;28;19912;-86
2022/09/03 04:31:23;;;;;;;1.00;1.00;;;;;;;14.41;54.34;100972.34;5074493;28;20024;-85
2022/09/03 04:33:50;;;;;;;1.80;1.20;;;;;;;14.43;53.98;100977.50;5074058;28;20037;-85
2022/09/03 04:36:17;;;;;;;1.15;1.13;;;;;;;14.43;54.07;100972.28;5073623;28;20017;-86
2022/09/03 04:38:44;;;;;;;0.95;0.93;;;;;;;14.42;54.18;100970.56;5074110;28;20032;-86
2022/09/03 04:41:12;;;;;;;1.33;1.23;;;;;;;14.41;54.97;100966.28;5072563;28;20032;-85
2022/09/03 04:43:38;;;;;;;1.10;1.10;;;;;;;14.39;54.05;100971.53;5073945;28;20070;-85
2022/09/03 04:46:06;;;;;;;2.78;1.42;;;;;;;14.38;55.24;100971.56;5073892;28;20039;-85
2022/09/03 04:48:34;;;;;;;0.98;0.95;;;;;;;14.36;54.07;100971.59;5073250;28;20533;-86
2022/09/03 04:51:12;;;;;;;0.77;0.77;;;;;;;14.36;54.16;100972.47;5073677;28;20354;-85
2022/09/03 04:53:40;;;;;;;1.42;1.33;;;;;;;14.39;53.81;100978.50;5073752;28;20075;-86
2022/09/03 04:56:19;;;;;;;1.40;1.30;;;;;;;14.38;54.04;100976.78;5072306;28;20086;-85
2022/09/03 04:58:45;;;;;;;1.13;1.13;;;;;;;14.39;53.29;100974.13;5073846;28;20058;-85
2022/09/03 05:01:16;;;;;;;1.10;1.10;;;;;;;14.40;54.29;100975.84;5073605;28;20028;-86
2022/09/03 05:03:41;;;;;;;1.27;1.20;;;;;;;14.41;54.28;100974.09;5072887;28;20115;-86
2022/09/03 05:06:08;;;;;;;1.67;1.33;;;;;;;14.40;55.06;100980.22;5073103;28;20119;-85
2022/09/03 05:08:35;;;;;;;1.33;1.23;;;;;;;14.39;54.80;100979.34;5073759;28;20032;-86
2022/09/03 05:11:04;;;;;;;1.60;1.50;;;;;;;14.39;53.81;100974.13;5071193;28;20423;-85
2022/09/03 05:13:30;;;;;;;1.80;1.48;;;;;;;14.39;54.94;100976.75;5073403;28;20027;-86
2022/09/03 05:16:00;;;;;;;1.25;1.25;;;;;;;14.41;55.30;100981.94;5064656;28;20064;-86
2022/09/03 05:18:25;;;;;;;1.17;1.17;;;;;;;14.42;55.51;100981.88;5072641;28;20499;-85
2022/09/03 05:21:00;;;;;;;1.63;1.37;;;;;;;14.43;53.82;100980.97;5073111;28;20040;-86
2022/09/03 05:23:32;;;;;;;1.00;1.00;;;;;;;14.43;54.68;100982.72;5072609;28;20033;-86
2022/09/03 05:25:59;;;;;;;1.00;1.00;;;;;;;14.45;54.51;100979.19;5073070;28;20526;-85
2022/09/03 05:28:26;;;;;;;1.02;1.00;;;;;;;14.46;54.71;100969.59;5071852;28;20033;-85
2022/09/03 05:31:06;;;;;;;1.48;1.38;;;;;;;14.46;54.60;100978.28;5072152;28;20027;-85
2022/09/03 05:33:36;;;;;;;1.60;1.50;;;;;;;14.47;55.00;100971.28;5073333;28;20032;-86
2022/09/03 05:36:04;;;;;;;1.50;1.27;;;;;;;14.46;56.15;100974.81;5072885;28;20029;-85
2022/09/03 05:38:30;;;;;;;2.35;1.55;;;;;;;14.47;54.95;100977.34;5070478;28;20035;-86
2022/09/03 05:40:59;;;;;;;2.03;1.52;;;;;;;14.48;54.65;100971.25;5073051;28;20021;-85
2022/09/03 05:43:26;;;;;;;1.30;1.20;;;;;;;14.50;55.14;100968.59;5072600;28;20040;-86
2022/09/03 05:45:57;;;;;;;1.23;1.13;;;;;;;14.51;55.05;100975.53;5072024;28;20385;-85
2022/09/03 05:48:22;;;;;;;1.00;1.00;;;;;;;14.51;54.91;100978.16;5072938;28;20027;-86
2022/09/03 05:50:48;;;;;;;1.07;1.03;;;;;;;14.53;55.08;100971.09;5072963;28;20033;-86
2022/09/03 05:53:13;;;;;;;0.75;0.75;;;;;;;14.55;54.65;100971.06;5072017;28;20044;-85
2022/09/03 05:55:39;;;;;;;0.80;0.80;;;;;;;14.58;54.64;100976.22;5071466;28;20047;-86
2022/09/03 05:58:04;;;;;;;1.10;1.07;;;;;;;14.62;55.06;100972.59;5072685;28;20046;-85
2022/09/03 06:00:29;;;;;;;1.30;1.20;;;;;;;14.65;55.77;100975.97;5071746;28;20090;-86
2022/09/03 06:02:54;;;;;;;1.67;1.50;;;;;;;14.68;54.83;100972.47;5072394;28;20088;-85
2022/09/03 06:05:20;;;;;;;2.97;1.80;;;;;;;14.72;56.69;100970.59;5071088;28;20024;-86
2022/09/03 06:07:48;;;;;;;1.83;1.53;;;;;;;14.78;55.69;100975.63;5071084;28;20487;-85
2022/09/03 06:10:17;;;;;;;3.55;1.65;;;;;;;14.85;55.41;100977.16;5072716;28;20472;-85
2022/09/03 06:12:48;;;;;;;1.80;1.70;;;;;;;14.96;56.00;100980.28;5071966;28;20082;-85
2022/09/03 06:15:13;;;;;;;1.70;1.60;;;;;;;15.09;54.60;100977.25;5072595;28;20080;-84
2022/09/03 06:17:40;;;;;;;1.80;1.70;;;;;;;15.13;55.68;100977.16;5072942;28;20044;-87
2022/09/03 06:20:05;;;;;;;1.73;1.63;;;;;;;15.22;54.87;100977.75;5072531;28;20103;-90
2022/09/03 06:22:31;;;;;;;1.87;1.77;;;;;;;15.29;55.31;100987.09;5073792;28;20104;-90
2022/09/03 06:24:56;;;;;;;2.13;1.93;;;;;;;15.38;54.93;100986.78;5074599;28;20021;-91
2022/09/03 06:27:21;;;;;;;2.23;1.77;;;;;;;15.44;54.93;100980.47;5059467;28;20472;-88
2022/09/03 06:29:47;;;;;;;2.90;1.87;;;;;;;15.52;54.33;100986.34;5053754;28;20099;-89
2022/09/03 06:32:30;;;;;;;2.40;1.97;;;;;;;15.59;53.41;100979.97;5052604;28;20161;-91
2022/09/03 06:34:55;;;;;;;1.60;1.50;;;;;;;15.66;54.04;100978.00;5052786;28;20040;-91
2022/09/03 06:37:39;;;;;;;1.80;1.50;;;;;;;15.77;53.79;100974.16;5053679;28;20077;-91
2022/09/03 06:40:11;;;;;;;2.17;1.60;;;;;;;15.87;53.69;100984.31;5053089;28;20103;-93
2022/09/03 06:43:02;;;;;;;1.70;1.60;;;;;;;16.00;53.28;100981.22;5047619;28;20052;-91
2022/09/03 06:45:29;;;;;;;4.38;2.20;;;;;;;16.18;53.42;100984.94;5045270;28;20041;-84
2022/09/03 06:47:54;;;;;;;2.08;1.70;;;;;;;16.29;53.96;100980.16;5050977;28;20032;-84
2022/09/03 06:50:20;;;;;;;3.07;2.00;;;;;;;16.46;54.27;100989.16;5052337;28;20025;-87
2022/09/03 06:52:53;;;;;;;3.83;2.10;;;;;;;16.63;52.79;100983.28;5052512;28;20530;-86
2022/09/03 06:55:20;;;;;;;2.58;1.70;;;;;;;16.79;53.60;100987.00;5051049;28;20303;-86
2022/09/03 06:57:46;;;;;;;2.95;2.20;;;;;;;16.97;53.31;100984.63;5032435;28;20041;-87
2022/09/03 07:00:12;;;;;;;3.87;2.10;;;;;;;17.09;52.61;100991.13;5048142;28;20025;-86
2022/09/03 07:02:40;;;;;;;2.42;2.10;;;;;;;17.23;51.76;100982.69;5071513;28;20090;-86
2022/09/03 07:05:06;;;;;;;3.70;2.10;;;;;;;17.33;51.76;100981.44;5071802;28;20035;-85
2022/09/03 07:07:31;;;;;;;4.53;2.10;;;;;;;17.42;51.74;100983.66;5071609;28;20107;-85
2022/09/03 07:09:57;;;;;;;2.50;2.00;;;;;;;17.57;51.58;100986.53;5071254;28;20119;-88
2022/09/03 07:12:22;;;;;;;3.27;2.10;;;;;;;17.88;51.10;100990.47;5072085;28;20021;-83
2022/09/03 07:14:47;;;;;;;4.43;2.67;;;;;;;18.30;50.83;100986.00;5071691;28;20396;-84
2022/09/03 07:17:12;;;;;;;3.73;2.63;;;;;;;18.77;50.62;100985.59;5071311;28;20445;-84
2022/09/03 07:19:38;;;;;;;4.27;2.50;;;;;;;19.44;49.02;100980.59;5075207;28;20032;-84
2022/09/03 07:22:03;;;;;;;3.83;2.47;;;;;;;19.93;47.77;100978.22;5075485;28;20116;-87
2022/09/03 07:24:29;;;;;;;4.93;2.55;;;;;;;19.97;47.92;100977.09;5073406;28;20027;-89
2022/09/03 07:26:56;;;;;;;6.67;3.10;;;;;;;19.85;48.01;100973.31;5073533;28;20035;-88
2022/09/03 07:29:22;;;;;;;5.82;3.00;;;;;;;19.69;48.17;100989.06;5056518;28;20029;-89
2022/09/03 07:31:50;;;;;;;5.72;2.78;;;;;;;19.58;48.44;100982.56;5055547;28;20354;-86
2022/09/03 07:34:15;;;;;;;6.32;3.50;;;;;;;19.46;48.18;100983.19;5055255;28;20029;-87
2022/09/03 07:36:45;;;;;;;6.30;3.30;;;;;;;19.37;48.26;100989.75;5055680;28;20078;-87
2022/09/03 07:39:12;;;;;;;7.65;3.58;;;;;;;19.35;48.37;100985.50;5054546;28;20366;-87
2022/09/03 07:41:42;;;;;;;7.07;3.50;;;;;;;19.34;48.54;100979.38;5055533;28;20457;-88
2022/09/03 07:44:07;;;;;;;12.82;4.43;;;;;;;19.36;48.34;100988.03;5054375;28;20035;-85
2022/09/03 07:46:35;;;;;;;10.50;4.10;;;;;;;19.35;48.43;100988.97;5055336;28;20032;-83
2022/09/03 07:49:02;;;;;;;7.70;3.95;;;;;;;19.40;48.43;100986.97;5054975;28;20028;-82
2022/09/03 07:51:29;;;;;;;9.05;3.85;;;;;;;19.45;47.72;100992.84;5053919;28;20029;-82
2022/09/03 07:54:00;;;;;;;9.45;3.95;;;;;;;19.52;48.16;100989.91;5054572;28;20059;-83
2022/09/03 07:56:27;;;;;;;11.30;4.03;;;;;;;19.54;47.59;100994.16;5060675;28;20481;-81
2022/09/03 07:58:54;;;;;;;8.23;3.92;;;;;;;19.62;47.70;100992.91;5074099;28;20025;-82
2022/09/03 08:01:21;;;;;;;13.20;4.75;;;;;;;19.67;47.51;100990.91;5074678;28;20413;-82
2022/09/03 08:03:48;;;;;;;11.63;4.50;;;;;;;19.72;47.51;100995.00;5075052;28;20451;-82
2022/09/03 08:06:16;;;;;;;12.32;4.45;;;;;;;19.82;46.74;100992.72;5073939;28;20077;-82
2022/09/03 08:08:43;;;;;;;10.02;4.15;;;;;;;19.95;47.07;100993.00;5074708;28;20039;-82
2022/09/03 08:11:12;;;;;;;7.60;3.80;;;;;;;20.07;47.50;100991.47;5074497;28;20055;-82
2022/09/03 08:13:43;;;;;;;8.98;3.92;;;;;;;20.25;46.78;100997.56;5073944;28;20107;-82
2022/09/03 08:16:10;;;;;;;7.15;3.58;;;;;;;20.36;47.18;100997.84;5074526;28;20040;-82
2022/09/03 08:18:36;;;;;;;7.53;3.63;;;;;;;20.51;47.05;100997.94;5074184;28;20411;-83
2022/09/03 08:21:07;;;;;;;7.65;3.42;;;;;;;20.64;46.80;101000.75;5060560;28;20103;-83
2022/09/03 08:23:36;;;;;;;7.18;3.50;;;;;;;20.77;45.74;100998.31;5054543;28;20112;-81
2022/09/03 08:26:02;;;;;;;7.13;3.65;;;;;;;20.87;45.98;101006.56;5074122;28;20024;-82
2022/09/03 08:28:29;;;;;;;10.33;4.13;;;;;;;20.91;45.69;101003.66;5061427;28;20443;-81
2022/09/03 08:30:54;;;;;;;;;;;;;;;20.96;44.75;101008.66;5044938;28;20310;-82
2022/09/03 08:33:35;;;;;;;9.98;4.22;;;;;;;21.01;45.37;101006.63;5039456;28;19952;-81
2022/09/03 08:36:03;;;;;;;9.15;3.97;;;;;;;21.12;45.83;101009.50;5046007;28;20373;-81
2022/09/03 08:38:30;;;;;;;9.23;3.75;;;;;;;21.22;45.36;101001.06;5054017;28;20027;-80
2022/09/03 08:41:15;;;;;;;7.80;3.60;;;;;;;21.34;44.56;101005.63;5053031;28;20074;-84
2022/09/03 08:43:56;;;;;;;7.15;3.10;;;;;;;21.47;45.29;101008.38;5053087;28;20052;-84
2022/09/03 08:46:31;;;;;;;5.95;3.08;;;;;;;21.60;43.20;101013.84;5053398;28;20025;-82
2022/09/03 08:48:58;;;;;;;7.57;3.60;;;;;;;21.68;44.23;101016.88;5042807;28;20059;-83
2022/09/03 08:51:26;;;;;;;8.35;3.08;;;;;;;21.72;44.28;101014.91;5043012;28;20025;-82
2022/09/03 08:53:56;;;;;;;3.65;2.40;;;;;;;21.87;43.94;101015.75;5052263;28;20041;-81
2022/09/03 08:56:27;;;;;;;5.95;2.70;;;;;;;21.99;43.17;101014.19;5053118;28;20041;-82
2022/09/03 08:58:53;;;;;;;5.32;2.80;;;;;;;22.07;42.79;101011.91;5053410;28;20104;-81
2022/09/03 09:01:40;;;;;;;5.35;2.85;;;;;;;22.18;43.70;101009.47;5053646;28;20032;-82
2022/09/03 09:04:36;;;;;;;6.32;3.00;;;;;;;22.27;43.09;101013.34;5053591;28;20373;-82
2022/09/03 09:07:48;;;;;;;6.10;2.53;;;;;;;22.39;43.41;101010.88;5046202;28;20430;-82
2022/09/03 09:10:41;;;;;;;4.85;2.53;;;;;;;22.50;42.94;101014.56;5045091;28;20451;-83
2022/09/03 09:13:33;;;;;;;8.23;3.40;;;;;;;22.51;40.58;101010.13;5053257;28;20083;-81
2022/09/03 09:16:01;;;;;;;7.50;3.47;;;;;;;22.42;41.53;101015.97;5052443;28;20116;-83
2022/09/03 09:18:46;;;;;;;6.40;2.78;;;;;;;22.54;41.89;101017.84;5053566;28;20028;-83
2022/09/03 09:21:19;;;;;;;3.28;2.55;;;;;;;22.73;41.24;101012.25;5052609;28;20067;-83
2022/09/03 09:23:49;;;;;;;6.03;2.90;;;;;;;22.74;40.02;101010.47;5052893;28;20068;-82
2022/09/03 09:26:17;;;;;;;5.65;2.83;;;;;;;22.72;41.30;101012.34;5053264;28;20096;-83
2022/09/03 09:28:45;;;;;;;3.50;2.20;;;;;;;22.86;41.77;101009.66;5052872;28;20033;-84
2022/09/03 09:31:14;;;;;;;4.10;2.40;;;;;;;23.06;41.35;101012.81;5052683;28;20033;-83
2022/09/03 09:33:40;;;;;;;2.60;2.00;;;;;;;23.27;40.71;101015.88;5053319;28;20475;-83
2022/09/03 09:36:10;;;;;;;2.50;2.00;;;;;;;23.40;39.95;101011.44;5052643;28;20029;-84
2022/09/03 09:38:37;;;;;;;3.60;2.35;;;;;;;23.51;41.56;101001.94;5052375;28;20078;-83
2022/09/03 09:41:22;;;;;;;5.03;2.50;;;;;;;23.65;39.90;101001.84;5052870;28;20081;-83
2022/09/03 09:44:01;;;;;;;3.63;2.40;;;;;;;23.70;39.30;101002.38;5052388;28;20024;-83
2022/09/03 09:46:35;;;;;;;4.88;2.30;;;;;;;23.80;40.40;100999.94;5052914;28;20029;-83
2022/09/03 09:49:01;;;;;;;4.38;2.10;;;;;;;23.97;39.92;101000.63;5065101;28;20104;-83
2022/09/03 09:51:32;;;;;;;6.30;2.70;;;;;;;24.02;39.69;101007.31;5072273;28;20107;-84
2022/09/03 09:54:01;;;;;;;3.60;2.40;;;;;;;24.13;39.15;101009.19;5072300;28;20306;-83
2022/09/03 09:56:28;;;;;;;4.05;2.30;;;;;;;24.14;39.64;101010.88;5072776;28;20135;-85
2022/09/03 09:59:08;;;;;;;2.70;1.92;;;;;;;24.11;39.65;101008.44;5072067;28;20111;-82
2022/09/03 10:01:38;;;;;;;3.17;2.00;;;;;;;24.16;39.77;101011.63;5072866;28;20027;-81
2022/09/03 10:04:23;;;;;;;2.88;1.95;;;;;;;24.34;38.81;101008.63;5072630;28;20029;-81
2022/09/03 10:07:26;;;;;;;3.08;2.15;;;;;;;24.53;39.21;101008.16;5071889;28;20465;-82
2022/09/03 10:09:59;;;;;;;3.60;2.20;;;;;;;24.73;38.59;101013.84;4971089;28;20485;-81
2022/09/03 10:12:30;;;;;;;2.50;2.00;;;;;;;24.87;39.06;101012.88;5055894;28;20396;-82
2022/09/03 10:15:18;;;;;;;3.67;2.00;;;;;;;25.01;38.25;101007.34;5072125;28;20031;-82
2022/09/03 10:17:51;;;;;;;2.17;1.90;;;;;;;25.12;38.90;101001.28;5032231;28;20568;-83
2022/09/03 10:20:36;;;;;;;2.50;1.90;;;;;;;25.27;37.28;100996.59;5031753;28;20017;-83
2022/09/03 10:23:10;;;;;;;2.88;2.00;;;;;;;25.35;37.18;100991.56;5032503;28;20068;-83
2022/09/03 10:26:06;;;;;;;1.98;1.52;;;;;;;25.47;38.44;100986.31;5031284;28;20048;-82
2022/09/03 10:28:33;;;;;;;;;;;;;;;25.32;35.19;100994.47;5047688;28;20116;-81
2022/09/03 10:31:14;;;;;;;6.65;3.22;;;;;;;25.29;37.31;100990.22;5052213;28;20333;-83
2022/09/03 10:33:58;;;;;;;7.18;3.38;;;;;;;25.20;35.62;100987.41;5051797;28;20025;-82
2022/09/03 10:36:32;;;;;;;5.55;2.72;;;;;;;25.20;37.24;100990.06;5052007;28;20111;-83
2022/09/03 10:39:32;;;;;;;2.38;2.10;;;;;;;25.37;37.14;100992.28;5052533;28;20035;-86
2022/09/03 10:42:32;;;;;;;3.20;2.33;;;;;;;25.51;35.62;100982.47;5011164;28;20412;-86
2022/09/03 10:45:20;;;;;;;4.85;2.40;;;;;;;25.61;36.57;100995.91;5052104;28;20033;-85
2022/09/03 10:48:05;;;;;;;4.25;2.42;;;;;;;25.70;36.80;100985.38;5034380;28;20029;-87
2022/09/03 10:51:03;;;;;;;3.33;2.30;;;;;;;25.82;34.70;100985.41;5052855;28;20057;-88
2022/09/03 10:54:07;;;;;;;3.47;2.42;;;;;;;25.85;35.96;100991.31;5047454;28;20072;-87
2022/09/03 10:56:52;;;;;;;3.05;2.20;;;;;;;26.08;36.44;100982.50;5064706;28;20131;-83
2022/09/03 10:59:32;;;;;;;3.85;2.50;;;;;;;26.23;35.96;100989.31;5076191;28;20032;-83
2022/09/03 11:02:35;;;;;;;4.28;2.50;;;;;;;26.36;36.45;100990.00;5074861;28;20031;-83
2022/09/03 11:05:42;;;;;;;4.97;2.85;;;;;;;26.52;33.83;100994.94;5075317;28;20039;-85
2022/09/03 11:08:10;;;;;;;8.18;3.88;;;;;;;26.32;34.37;100990.38;5029924;28;20040;-82
2022/09/03 11:10:43;;;;;;;7.00;3.70;;;;;;;26.29;34.31;100994.13;5075390;28;20040;-82
2022/09/03 11:13:16;;;;;;;7.30;3.10;;;;;;;26.41;35.08;100997.63;5074032;28;20032;-82
2022/09/03 11:15:47;;;;;;;7.10;3.30;;;;;;;26.46;34.39;100983.97;5075098;28;20107;-82
2022/09/03 11:18:23;;;;;;;6.32;3.10;;;;;;;26.47;35.10;100989.16;5075517;28;20024;-83
2022/09/03 11:20:50;;;;;;;;;;;;;;;26.61;35.44;100988.03;5075994;28;20031;-84
2022/09/03 11:23:18;;;;;;;10.00;3.65;;;;;;;26.75;32.96;100986.06;5071044;28;19948;-82
2022/09/03 11:25:55;;;;;;;7.50;3.88;;;;;;;26.68;33.07;100991.88;5055800;28;20033;-82
2022/09/03 11:28:36;;;;;;;5.60;3.38;;;;;;;26.60;33.87;100993.47;5054943;28;20028;-85
2022/09/03 11:31:16;;;;;;;5.05;2.90;;;;;;;26.71;33.52;100980.16;5054525;28;20116;-82
2022/09/03 11:33:53;;;;;;;5.82;2.90;;;;;;;26.87;34.60;100979.75;5055616;28;20029;-83
2022/09/03 11:36:27;;;;;;;4.35;2.70;;;;;;;27.02;33.43;100984.78;5054937;28;20033;-83
2022/09/03 11:38:52;;;;;;;4.70;2.67;;;;;;;27.11;34.64;100971.53;5055243;28;20035;-83
2022/09/03 11:41:34;;;;;;;5.07;2.73;;;;;;;27.28;34.33;100970.13;5055134;28;20029;-82
2022/09/03 11:44:18;;;;;;;5.25;2.92;;;;;;;27.36;33.27;100958.81;5054543;28;20298;-83
2022/09/03 11:46:56;;;;;;;6.88;3.40;;;;;;;27.35;33.77;100958.94;5055261;28;20021;-82
2022/09/03 11:49:35;;;;;;;9.68;3.95;;;;;;;27.26;32.03;100963.22;5055008;28;20033;-82
2022/09/03 11:52:06;;;;;;;5.70;3.22;;;;;;;27.29;33.51;100965.66;5056894;28;20044;-83
2022/09/03 11:54:42;;;;;;;6.63;3.47;;;;;;;27.37;31.94;100962.31;5074890;28;20072;-82